sensor_id;sensor_type;location;lat;lon;timestamp;pressure;altitude;pressure_sealevel;temperature;humidity
5812;BME280;2932;52.400;9.558;2023-05-14T00:01:32;101355.00;;;19.33;55.34
5812;BME280;2932;52.400;9.558;2023-05-14T00:03:58;101352.91;;;19.23;55.30
5812;BME280;2932;52.400;9.558;2023-05-14T00:06:23;101354.09;;;19.19;55.95
5812;BME280;2932;52.400;9.558;2023-05-14T00:08:48;101345.22;;;19.13;56.07
5812;BME280;2932;52.400;9.558;2023-05-14T00:11:13;101344.28;;;18.98;56.39
5812;BME280;2932;52.400;9.558;2023-05-14T00:13:39;101346.16;;;18.87;56.92
5812;BME280;2932;52.400;9.558;2023-05-14T00:16:04;101339.91;;;18.30;57.64
5812;BME280;2932;52.400;9.558;2023-05-14T00:18:30;101334.81;;;18.10;57.93
5812;BME280;2932;52.400;9.558;2023-05-14T00:20:55;101336.19;;;18.23;57.76
5812;BME280;2932;52.400;9.558;2023-05-14T00:23:21;101327.56;;;18.35;57.33
5812;BME280;2932;52.400;9.558;2023-05-14T00:25:46;101336.91;;;18.50;57.37
5812;BME280;2932;52.400;9.558;2023-05-14T00:28:12;101339.13;;;18.63;57.30
5812;BME280;2932;52.400;9.558;2023-05-14T00:30:37;101346.72;;;18.63;56.99
5812;BME280;2932;52.400;9.558;2023-05-14T00:33:04;101338.31;;;18.63;56.93
5812;BME280;2932;52.400;9.558;2023-05-14T00:35:29;101336.19;;;18.56;57.12
5812;BME280;2932;52.400;9.558;2023-05-14T00:37:55;101344.13;;;18.51;57.28
5812;BME280;2932;52.400;9.558;2023-05-14T00:40:24;101345.50;;;18.60;57.47
5812;BME280;2932;52.400;9.558;2023-05-14T00:42:50;101335.78;;;18.54;58.09
5812;BME280;2932;52.400;9.558;2023-05-14T00:45:16;101345.84;;;18.59;57.89
5812;BME280;2932;52.400;9.558;2023-05-14T00:47:42;101347.09;;;18.61;57.74
5812;BME280;2932;52.400;9.558;2023-05-14T00:50:08;101338.97;;;18.53;57.47
5812;BME280;2932;52.400;9.558;2023-05-14T00:52:35;101338.97;;;18.53;57.55
5812;BME280;2932;52.400;9.558;2023-05-14T00:55:03;101332.88;;;18.47;57.89
5812;BME280;2932;52.400;9.558;2023-05-14T00:57:30;101333.69;;;18.48;57.79
5812;BME280;2932;52.400;9.558;2023-05-14T00:59:55;101332.59;;;18.56;57.68
5812;BME280;2932;52.400;9.558;2023-05-14T01:02:21;101336.50;;;18.48;57.72
5812;BME280;2932;52.400;9.558;2023-05-14T01:04:46;101332.88;;;18.47;57.79
5812;BME280;2932;52.400;9.558;2023-05-14T01:07:22;101333.25;;;18.46;57.72
5812;BME280;2932;52.400;9.558;2023-05-14T01:10:20;101329.28;;;18.47;57.46
5812;BME280;2932;52.400;9.558;2023-05-14T01:12:59;101332.78;;;18.40;57.79
5812;BME280;2932;52.400;9.558;2023-05-14T01:15:33;101335.97;;;18.35;57.66
5812;BME280;2932;52.400;9.558;2023-05-14T01:18:08;101333.50;;;18.30;57.51
5812;BME280;2932;52.400;9.558;2023-05-14T01:20:34;101344.69;;;18.00;58.02
5812;BME280;2932;52.400;9.558;2023-05-14T01:23:00;101339.00;;;17.93;58.28
5812;BME280;2932;52.400;9.558;2023-05-14T01:25:25;101332.94;;;18.17;57.50
5812;BME280;2932;52.400;9.558;2023-05-14T01:28:08;101337.28;;;17.85;58.35
5812;BME280;2932;52.400;9.558;2023-05-14T01:30:43;101336.44;;;17.81;58.34
5812;BME280;2932;52.400;9.558;2023-05-14T01:33:12;101336.94;;;17.63;58.77
5812;BME280;2932;52.400;9.558;2023-05-14T01:35:38;101343.41;;;17.67;58.49
5812;BME280;2932;52.400;9.558;2023-05-14T01:38:06;101340.34;;;17.76;58.72
5812;BME280;2932;52.400;9.558;2023-05-14T01:40:35;101341.13;;;17.73;58.94
5812;BME280;2932;52.400;9.558;2023-05-14T01:43:01;101336.63;;;17.69;58.99
5812;BME280;2932;52.400;9.558;2023-05-14T01:45:26;101341.28;;;18.14;58.22
5812;BME280;2932;52.400;9.558;2023-05-14T01:47:52;101328.94;;;18.18;57.83
5812;BME280;2932;52.400;9.558;2023-05-14T01:50:17;101332.94;;;18.17;57.74
5812;BME280;2932;52.400;9.558;2023-05-14T01:52:42;101327.00;;;17.92;58.11
5812;BME280;2932;52.400;9.558;2023-05-14T01:55:08;101332.78;;;17.77;58.94
5812;BME280;2932;52.400;9.558;2023-05-14T01:57:34;101330.63;;;17.66;59.16
5812;BME280;2932;52.400;9.558;2023-05-14T01:59:59;101337.59;;;17.53;59.58
5812;BME280;2932;52.400;9.558;2023-05-14T02:02:25;101330.91;;;16.89;60.88
5812;BME280;2932;52.400;9.558;2023-05-14T02:04:51;101335.00;;;16.73;61.43
5812;BME280;2932;52.400;9.558;2023-05-14T02:07:16;101328.00;;;17.05;61.08
5812;BME280;2932;52.400;9.558;2023-05-14T02:09:42;101327.47;;;17.22;60.55
5812;BME280;2932;52.400;9.558;2023-05-14T02:12:08;101325.25;;;17.31;60.34
5812;BME280;2932;52.400;9.558;2023-05-14T02:14:33;101321.22;;;16.83;60.73
5812;BME280;2932;52.400;9.558;2023-05-14T02:16:59;101323.44;;;17.20;60.52
5812;BME280;2932;52.400;9.558;2023-05-14T02:19:24;101329.38;;;16.92;61.24
5812;BME280;2932;52.400;9.558;2023-05-14T02:21:50;101316.09;;;17.08;61.25
5812;BME280;2932;52.400;9.558;2023-05-14T02:24:15;101325.06;;;17.21;60.68
5812;BME280;2932;52.400;9.558;2023-05-14T02:26:41;101325.63;;;16.84;61.17
5812;BME280;2932;52.400;9.558;2023-05-14T02:29:07;101319.69;;;17.09;61.11
5812;BME280;2932;52.400;9.558;2023-05-14T02:31:32;101320.94;;;17.11;60.79
5812;BME280;2932;52.400;9.558;2023-05-14T02:34:00;101317.97;;;17.27;60.65
5812;BME280;2932;52.400;9.558;2023-05-14T02:36:25;101312.06;;;17.32;60.62
5812;BME280;2932;52.400;9.558;2023-05-14T02:38:50;101319.59;;;17.28;60.37
5812;BME280;2932;52.400;9.558;2023-05-14T02:41:15;101314.22;;;17.42;60.70
5812;BME280;2932;52.400;9.558;2023-05-14T02:43:41;101316.47;;;17.33;60.03
5812;BME280;2932;52.400;9.558;2023-05-14T02:46:06;101308.97;;;17.37;60.39
5812;BME280;2932;52.400;9.558;2023-05-14T02:48:31;101307.41;;;17.66;59.91
5812;BME280;2932;52.400;9.558;2023-05-14T02:50:57;101304.66;;;17.43;60.52
5812;BME280;2932;52.400;9.558;2023-05-14T02:53:22;101308.47;;;17.31;61.06
5812;BME280;2932;52.400;9.558;2023-05-14T02:55:47;101304.97;;;17.38;60.72
5812;BME280;2932;52.400;9.558;2023-05-14T02:58:13;101300.03;;;17.54;60.54
5812;BME280;2932;52.400;9.558;2023-05-14T03:00:39;101308.88;;;17.56;60.55
5812;BME280;2932;52.400;9.558;2023-05-14T03:03:04;101307.19;;;17.52;60.29
5812;BME280;2932;52.400;9.558;2023-05-14T03:05:29;101308.44;;;17.54;60.43
5812;BME280;2932;52.400;9.558;2023-05-14T03:07:55;101306.50;;;17.58;60.29
5812;BME280;2932;52.400;9.558;2023-05-14T03:10:20;101305.59;;;17.51;60.47
5812;BME280;2932;52.400;9.558;2023-05-14T03:12:45;101304.78;;;17.50;60.77
5812;BME280;2932;52.400;9.558;2023-05-14T03:15:11;101302.78;;;17.51;60.88
5812;BME280;2932;52.400;9.558;2023-05-14T03:17:37;101299.56;;;17.49;60.69
5812;BME280;2932;52.400;9.558;2023-05-14T03:20:02;101303.91;;;17.46;61.09
5812;BME280;2932;52.400;9.558;2023-05-14T03:22:28;101303.97;;;17.50;60.88
5812;BME280;2932;52.400;9.558;2023-05-14T03:24:53;101306.81;;;17.53;60.87
5812;BME280;2932;52.400;9.558;2023-05-14T03:27:18;101300.47;;;17.56;60.86
5812;BME280;2932;52.400;9.558;2023-05-14T03:29:44;101306.00;;;17.53;60.67
5812;BME280;2932;52.400;9.558;2023-05-14T03:32:10;101300.31;;;17.46;60.76
5812;BME280;2932;52.400;9.558;2023-05-14T03:34:35;101298.56;;;17.38;61.49
5812;BME280;2932;52.400;9.558;2023-05-14T03:37:01;101303.50;;;17.21;61.78
5812;BME280;2932;52.400;9.558;2023-05-14T03:39:26;101295.88;;;17.45;61.24
5812;BME280;2932;52.400;9.558;2023-05-14T03:41:51;101303.78;;;17.39;61.15
5812;BME280;2932;52.400;9.558;2023-05-14T03:44:16;101296.63;;;17.42;61.38
5812;BME280;2932;52.400;9.558;2023-05-14T03:46:42;101299.56;;;17.26;61.49
5812;BME280;2932;52.400;9.558;2023-05-14T03:49:07;101300.84;;;17.06;62.00
5812;BME280;2932;52.400;9.558;2023-05-14T03:51:33;101300.19;;;17.39;61.72
5812;BME280;2932;52.400;9.558;2023-05-14T03:53:58;101297.94;;;16.98;62.25
5812;BME280;2932;52.400;9.558;2023-05-14T03:56:24;101293.09;;;16.95;62.38
5812;BME280;2932;52.400;9.558;2023-05-14T03:58:50;101299.81;;;17.14;62.19
5812;BME280;2932;52.400;9.558;2023-05-14T04:01:15;101299.91;;;17.21;62.12
5812;BME280;2932;52.400;9.558;2023-05-14T04:03:41;101294.28;;;17.17;62.02
5812;BME280;2932;52.400;9.558;2023-05-14T04:06:06;101301.75;;;17.36;61.46
5812;BME280;2932;52.400;9.558;2023-05-14T04:08:31;101300.69;;;17.44;61.37
5812;BME280;2932;52.400;9.558;2023-05-14T04:10:57;101299.00;;;17.40;61.56
5812;BME280;2932;52.400;9.558;2023-05-14T04:13:22;101298.47;;;17.30;61.58
5812;BME280;2932;52.400;9.558;2023-05-14T04:15:47;101301.16;;;17.50;61.57
5812;BME280;2932;52.400;9.558;2023-05-14T04:18:13;101299.69;;;17.59;61.38
5812;BME280;2932;52.400;9.558;2023-05-14T04:20:38;101297.69;;;17.60;61.69
5812;BME280;2932;52.400;9.558;2023-05-14T04:23:04;101291.69;;;17.58;61.55
5812;BME280;2932;52.400;9.558;2023-05-14T04:25:29;101293.06;;;17.67;60.91
5812;BME280;2932;52.400;9.558;2023-05-14T04:27:55;101299.38;;;17.64;61.35
5812;BME280;2932;52.400;9.558;2023-05-14T04:30:20;101296.88;;;17.59;61.41
5812;BME280;2932;52.400;9.558;2023-05-14T04:32:45;101293.72;;;17.61;61.67
5812;BME280;2932;52.400;9.558;2023-05-14T04:35:11;101289.50;;;17.71;61.19
5812;BME280;2932;52.400;9.558;2023-05-14T04:37:37;101290.16;;;17.64;61.36
5812;BME280;2932;52.400;9.558;2023-05-14T04:40:03;101290.63;;;17.66;61.51
5812;BME280;2932;52.400;9.558;2023-05-14T04:42:29;101292.28;;;17.71;61.29
5812;BME280;2932;52.400;9.558;2023-05-14T04:44:54;101294.72;;;17.72;61.26
5812;BME280;2932;52.400;9.558;2023-05-14T04:47:20;101295.19;;;17.78;61.66
5812;BME280;2932;52.400;9.558;2023-05-14T04:49:45;101289.53;;;17.74;61.48
5812;BME280;2932;52.400;9.558;2023-05-14T04:52:10;101294.88;;;17.83;61.58
5812;BME280;2932;52.400;9.558;2023-05-14T04:54:36;101299.50;;;18.02;61.08
5812;BME280;2932;52.400;9.558;2023-05-14T04:57:01;101301.28;;;17.83;61.26
5812;BME280;2932;52.400;9.558;2023-05-14T04:59:28;101294.84;;;18.13;60.76
5812;BME280;2932;52.400;9.558;2023-05-14T05:01:53;101297.66;;;18.13;61.13
5812;BME280;2932;52.400;9.558;2023-05-14T05:04:19;101299.03;;;18.26;61.10
5812;BME280;2932;52.400;9.558;2023-05-14T05:06:44;101292.34;;;18.04;61.58
5812;BME280;2932;52.400;9.558;2023-05-14T05:09:09;101291.91;;;18.02;61.74
5812;BME280;2932;52.400;9.558;2023-05-14T05:11:35;101297.19;;;18.07;61.67
5812;BME280;2932;52.400;9.558;2023-05-14T05:14:00;101296.06;;;17.82;62.08
5812;BME280;2932;52.400;9.558;2023-05-14T05:16:25;101293.06;;;17.67;62.60
5812;BME280;2932;52.400;9.558;2023-05-14T05:18:51;101297.66;;;17.83;62.55
5812;BME280;2932;52.400;9.558;2023-05-14T05:21:16;101293.91;;;18.02;62.09
5812;BME280;2932;52.400;9.558;2023-05-14T05:23:41;101291.16;;;17.75;62.39
5812;BME280;2932;52.400;9.558;2023-05-14T05:26:07;101290.19;;;17.90;62.38
5812;BME280;2932;52.400;9.558;2023-05-14T05:28:32;101295.69;;;17.83;62.54
5812;BME280;2932;52.400;9.558;2023-05-14T05:30:57;101293.94;;;18.05;62.06
5812;BME280;2932;52.400;9.558;2023-05-14T05:33:23;101298.78;;;18.42;60.88
5812;BME280;2932;52.400;9.558;2023-05-14T05:35:48;101298.53;;;18.54;60.80
5812;BME280;2932;52.400;9.558;2023-05-14T05:38:14;101303.19;;;18.73;60.58
5812;BME280;2932;52.400;9.558;2023-05-14T05:40:42;101303.13;;;18.69;60.39
5812;BME280;2932;52.400;9.558;2023-05-14T05:43:07;101303.66;;;18.82;60.40
5812;BME280;2932;52.400;9.558;2023-05-14T05:45:32;101298.84;;;18.82;60.50
5812;BME280;2932;52.400;9.558;2023-05-14T05:47:58;101298.91;;;18.89;60.23
5812;BME280;2932;52.400;9.558;2023-05-14T05:50:24;101299.47;;;19.06;60.01
5812;BME280;2932;52.400;9.558;2023-05-14T05:52:51;101297.00;;;18.97;60.23
5812;BME280;2932;52.400;9.558;2023-05-14T05:55:16;101302.63;;;19.01;60.49
5812;BME280;2932;52.400;9.558;2023-05-14T05:57:41;101297.59;;;19.24;59.68
5812;BME280;2932;52.400;9.558;2023-05-14T06:00:07;101298.03;;;19.26;59.54
5812;BME280;2932;52.400;9.558;2023-05-14T06:02:42;101294.84;;;19.31;59.31
5812;BME280;2932;52.400;9.558;2023-05-14T06:05:08;101292.44;;;19.29;59.46
5812;BME280;2932;52.400;9.558;2023-05-14T06:07:34;101289.28;;;19.35;59.49
5812;BME280;2932;52.400;9.558;2023-05-14T06:10:00;101292.97;;;19.46;59.69
5812;BME280;2932;52.400;9.558;2023-05-14T06:12:25;101293.38;;;19.44;59.94
5812;BME280;2932;52.400;9.558;2023-05-14T06:14:50;101294.06;;;19.30;59.91
5812;BME280;2932;52.400;9.558;2023-05-14T06:17:16;101300.66;;;19.52;59.64
5812;BME280;2932;52.400;9.558;2023-05-14T06:19:42;101301.97;;;19.69;59.06
5812;BME280;2932;52.400;9.558;2023-05-14T06:22:07;101297.88;;;19.52;59.69
5812;BME280;2932;52.400;9.558;2023-05-14T06:24:32;101306.72;;;19.61;59.65
5812;BME280;2932;52.400;9.558;2023-05-14T06:26:58;101305.53;;;19.62;59.10
5812;BME280;2932;52.400;9.558;2023-05-14T06:29:24;101297.97;;;19.74;58.95
5812;BME280;2932;52.400;9.558;2023-05-14T06:31:49;101303.72;;;19.91;58.95
5812;BME280;2932;52.400;9.558;2023-05-14T06:34:14;101296.91;;;19.96;58.46
5812;BME280;2932;52.400;9.558;2023-05-14T06:36:40;101302.03;;;19.80;58.16
5812;BME280;2932;52.400;9.558;2023-05-14T06:39:05;101304.09;;;19.86;57.89
5812;BME280;2932;52.400;9.558;2023-05-14T06:41:30;101302.50;;;19.89;57.98
5812;BME280;2932;52.400;9.558;2023-05-14T06:43:56;101302.59;;;20.10;57.37
5812;BME280;2932;52.400;9.558;2023-05-14T06:46:22;101292.16;;;20.11;57.22
5812;BME280;2932;52.400;9.558;2023-05-14T06:48:47;101297.78;;;20.14;56.81
5812;BME280;2932;52.400;9.558;2023-05-14T06:51:13;101294.59;;;20.19;56.39
5812;BME280;2932;52.400;9.558;2023-05-14T06:53:39;101295.38;;;20.13;55.96
5812;BME280;2932;52.400;9.558;2023-05-14T06:56:04;101300.66;;;20.25;56.14
5812;BME280;2932;52.400;9.558;2023-05-14T06:58:29;101290.25;;;20.33;55.19
5812;BME280;2932;52.400;9.558;2023-05-14T07:00:55;101294.63;;;20.23;55.48
5812;BME280;2932;52.400;9.558;2023-05-14T07:03:20;101291.09;;;20.51;55.06
5812;BME280;2932;52.400;9.558;2023-05-14T07:05:46;101288.28;;;20.44;55.64
5812;BME280;2932;52.400;9.558;2023-05-14T07:08:12;101278.66;;;20.55;55.57
5812;BME280;2932;52.400;9.558;2023-05-14T07:10:37;101275.47;;;20.60;54.93
5812;BME280;2932;52.400;9.558;2023-05-14T07:13:03;101279.91;;;20.61;55.18
5812;BME280;2932;52.400;9.558;2023-05-14T07:15:29;101286.75;;;20.68;54.69
5812;BME280;2932;52.400;9.558;2023-05-14T07:17:54;101274.69;;;20.74;54.01
5812;BME280;2932;52.400;9.558;2023-05-14T07:20:20;101278.31;;;20.89;53.62
5812;BME280;2932;52.400;9.558;2023-05-14T07:22:47;101278.31;;;20.96;53.65
5812;BME280;2932;52.400;9.558;2023-05-14T07:25:13;101275.50;;;20.96;54.12
5812;BME280;2932;52.400;9.558;2023-05-14T07:27:38;101270.28;;;21.16;54.07
5812;BME280;2932;52.400;9.558;2023-05-14T07:30:04;101273.50;;;21.18;53.36
5812;BME280;2932;52.400;9.558;2023-05-14T07:32:29;101266.28;;;21.35;52.47
5812;BME280;2932;52.400;9.558;2023-05-14T07:34:54;101267.88;;;21.39;52.76
5812;BME280;2932;52.400;9.558;2023-05-14T07:37:20;101270.28;;;21.30;52.65
5812;BME280;2932;52.400;9.558;2023-05-14T07:39:46;101264.66;;;21.34;52.02
5812;BME280;2932;52.400;9.558;2023-05-14T07:42:12;101261.44;;;21.42;51.71
5812;BME280;2932;52.400;9.558;2023-05-14T07:44:37;101259.81;;;21.55;52.25
5812;BME280;2932;52.400;9.558;2023-05-14T07:47:03;101261.03;;;21.40;51.75
5812;BME280;2932;52.400;9.558;2023-05-14T07:49:28;101261.03;;;21.47;52.15
5812;BME280;2932;52.400;9.558;2023-05-14T07:51:53;101256.19;;;21.58;52.13
5812;BME280;2932;52.400;9.558;2023-05-14T07:54:19;101263.41;;;21.59;52.10
5812;BME280;2932;52.400;9.558;2023-05-14T07:56:44;101263.84;;;21.54;52.68
5812;BME280;2932;52.400;9.558;2023-05-14T07:59:09;101259.00;;;21.58;52.21
5812;BME280;2932;52.400;9.558;2023-05-14T08:01:35;101252.53;;;21.65;52.40
5812;BME280;2932;52.400;9.558;2023-05-14T08:04:00;101249.63;;;21.97;52.12
5812;BME280;2932;52.400;9.558;2023-05-14T08:06:26;101253.22;;;22.05;52.13
5812;BME280;2932;52.400;9.558;2023-05-14T08:08:52;101246.47;;;21.70;52.59
5812;BME280;2932;52.400;9.558;2023-05-14T08:11:17;101238.34;;;21.97;51.77
5812;BME280;2932;52.400;9.558;2023-05-14T08:13:43;101247.97;;;22.10;51.99
5812;BME280;2932;52.400;9.558;2023-05-14T08:16:08;101239.91;;;22.12;51.19
5812;BME280;2932;52.400;9.558;2023-05-14T08:18:34;101234.66;;;22.14;51.22
5812;BME280;2932;52.400;9.558;2023-05-14T08:20:59;101233.34;;;22.37;51.03
5812;BME280;2932;52.400;9.558;2023-05-14T08:23:25;101237.47;;;22.18;50.86
5812;BME280;2932;52.400;9.558;2023-05-14T08:25:51;101237.72;;;22.41;50.75
5812;BME280;2932;52.400;9.558;2023-05-14T08:28:16;101237.38;;;22.32;50.18
5812;BME280;2932;52.400;9.558;2023-05-14T08:30:41;101235.94;;;22.69;50.43
5812;BME280;2932;52.400;9.558;2023-05-14T08:33:07;101240.28;;;22.80;50.60
5812;BME280;2932;52.400;9.558;2023-05-14T08:35:32;101243.84;;;22.88;50.16
5812;BME280;2932;52.400;9.558;2023-05-14T08:37:57;101231.28;;;22.96;49.68
5812;BME280;2932;52.400;9.558;2023-05-14T08:40:23;101228.50;;;22.92;49.10
5812;BME280;2932;52.400;9.558;2023-05-14T08:42:50;101221.38;;;22.77;48.56
5812;BME280;2932;52.400;9.558;2023-05-14T08:45:17;101234.19;;;22.85;48.59
5812;BME280;2932;52.400;9.558;2023-05-14T08:47:46;101224.88;;;22.92;48.83
5812;BME280;2932;52.400;9.558;2023-05-14T08:50:13;101213.84;;;23.08;49.19
5812;BME280;2932;52.400;9.558;2023-05-14T08:52:38;101226.28;;;23.18;48.96
5812;BME280;2932;52.400;9.558;2023-05-14T08:55:04;101219.75;;;23.21;48.37
5812;BME280;2932;52.400;9.558;2023-05-14T08:57:33;101221.97;;;23.44;47.98
5812;BME280;2932;52.400;9.558;2023-05-14T08:59:59;101216.38;;;23.37;47.20
5812;BME280;2932;52.400;9.558;2023-05-14T09:02:29;101213.22;;;23.69;47.29
5812;BME280;2932;52.400;9.558;2023-05-14T09:04:57;101218.47;;;23.29;47.60
5812;BME280;2932;52.400;9.558;2023-05-14T09:07:23;101220.28;;;23.53;47.06
5812;BME280;2932;52.400;9.558;2023-05-14T09:09:50;101213.69;;;23.64;46.65
5812;BME280;2932;52.400;9.558;2023-05-14T09:12:15;101205.44;;;23.80;46.56
5812;BME280;2932;52.400;9.558;2023-05-14T09:14:41;101210.56;;;23.88;46.18
5812;BME280;2932;52.400;9.558;2023-05-14T09:17:07;101210.59;;;24.15;45.78
5812;BME280;2932;52.400;9.558;2023-05-14T09:19:32;101201.47;;;24.35;45.48
5812;BME280;2932;52.400;9.558;2023-05-14T09:21:58;101205.16;;;24.32;45.90
5812;BME280;2932;52.400;9.558;2023-05-14T09:24:26;101200.84;;;24.20;45.94
5812;BME280;2932;52.400;9.558;2023-05-14T09:26:57;101196.47;;;24.15;45.33
5812;BME280;2932;52.400;9.558;2023-05-14T09:29:28;101198.06;;;24.16;45.82
5812;BME280;2932;52.400;9.558;2023-05-14T09:31:55;101190.00;;;24.15;45.82
5812;BME280;2932;52.400;9.558;2023-05-14T09:36:49;101178.44;;;24.59;45.32
5812;BME280;2932;52.400;9.558;2023-05-14T09:39:14;101189.34;;;24.84;45.63
5812;BME280;2932;52.400;9.558;2023-05-14T09:41:40;101184.66;;;24.51;45.05
5812;BME280;2932;52.400;9.558;2023-05-14T09:44:05;101186.13;;;24.36;44.88
5812;BME280;2932;52.400;9.558;2023-05-14T09:46:30;101188.09;;;23.78;45.45
5812;BME280;2932;52.400;9.558;2023-05-14T09:48:56;101183.16;;;23.85;45.64
5812;BME280;2932;52.400;9.558;2023-05-14T09:51:22;101174.09;;;23.67;45.64
5812;BME280;2932;52.400;9.558;2023-05-14T09:53:50;101186.19;;;23.68;45.18
5812;BME280;2932;52.400;9.558;2023-05-14T09:56:16;101181.34;;;23.68;45.44
5812;BME280;2932;52.400;9.558;2023-05-14T09:58:41;101179.06;;;23.90;44.89
5812;BME280;2932;52.400;9.558;2023-05-14T10:01:07;101169.41;;;23.87;45.17
5812;BME280;2932;52.400;9.558;2023-05-14T10:03:33;101159.03;;;23.77;46.01
5812;BME280;2932;52.400;9.558;2023-05-14T10:06:03;101162.75;;;23.71;46.17
5812;BME280;2932;52.400;9.558;2023-05-14T10:08:33;101154.81;;;24.19;46.49
5812;BME280;2932;52.400;9.558;2023-05-14T10:11:02;101154.28;;;24.55;45.63
5812;BME280;2932;52.400;9.558;2023-05-14T10:13:32;101159.13;;;24.54;44.73
5812;BME280;2932;52.400;9.558;2023-05-14T10:16:10;101160.75;;;24.79;44.25
5812;BME280;2932;52.400;9.558;2023-05-14T10:18:40;101159.06;;;24.81;44.45
5812;BME280;2932;52.400;9.558;2023-05-14T10:21:06;101148.84;;;24.87;44.38
5812;BME280;2932;52.400;9.558;2023-05-14T10:23:33;101149.06;;;25.20;43.98
5812;BME280;2932;52.400;9.558;2023-05-14T10:26:02;101150.47;;;25.12;43.62
5812;BME280;2932;52.400;9.558;2023-05-14T10:28:28;101145.34;;;25.46;43.38
5812;BME280;2932;52.400;9.558;2023-05-14T10:30:54;101141.13;;;25.74;43.85
5812;BME280;2932;52.400;9.558;2023-05-14T10:33:19;101148.09;;;25.70;44.09
5812;BME280;2932;52.400;9.558;2023-05-14T10:35:59;101137.63;;;25.67;43.46
5812;BME280;2932;52.400;9.558;2023-05-14T10:38:26;101137.13;;;26.08;43.57
5812;BME280;2932;52.400;9.558;2023-05-14T10:40:59;101131.59;;;26.01;42.25
5812;BME280;2932;52.400;9.558;2023-05-14T10:43:26;101132.16;;;26.12;40.61
5812;BME280;2932;52.400;9.558;2023-05-14T10:45:54;101133.16;;;26.21;40.00
5812;BME280;2932;52.400;9.558;2023-05-14T10:48:19;101126.06;;;26.13;40.50
5812;BME280;2932;52.400;9.558;2023-05-14T10:50:47;101130.97;;;26.29;40.44
5812;BME280;2932;52.400;9.558;2023-05-14T10:53:14;101130.19;;;26.45;40.63
5812;BME280;2932;52.400;9.558;2023-05-14T10:55:41;101129.22;;;26.51;41.75
5812;BME280;2932;52.400;9.558;2023-05-14T10:58:09;101129.03;;;26.58;41.13
5812;BME280;2932;52.400;9.558;2023-05-14T11:00:35;101128.28;;;26.22;40.43
5812;BME280;2932;52.400;9.558;2023-05-14T11:03:03;101120.31;;;25.81;40.54
5812;BME280;2932;52.400;9.558;2023-05-14T11:05:30;101117.19;;;25.95;40.51
5812;BME280;2932;52.400;9.558;2023-05-14T11:07:56;101106.88;;;26.01;40.16
5812;BME280;2932;52.400;9.558;2023-05-14T11:10:22;101105.69;;;26.51;39.08
5812;BME280;2932;52.400;9.558;2023-05-14T11:12:50;101107.84;;;26.63;38.99
5812;BME280;2932;52.400;9.558;2023-05-14T11:15:19;101101.09;;;26.57;38.55
5812;BME280;2932;52.400;9.558;2023-05-14T11:17:45;101104.47;;;26.52;37.90
5812;BME280;2932;52.400;9.558;2023-05-14T11:20:12;101085.06;;;26.96;37.61
5812;BME280;2932;52.400;9.558;2023-05-14T11:22:38;101100.22;;;27.34;38.07
5812;BME280;2932;52.400;9.558;2023-05-14T11:25:05;101096.84;;;26.94;38.17
5812;BME280;2932;52.400;9.558;2023-05-14T11:27:33;101093.75;;;27.05;38.33
5812;BME280;2932;52.400;9.558;2023-05-14T11:29:58;101091.22;;;26.78;37.22
5812;BME280;2932;52.400;9.558;2023-05-14T11:32:25;101099.41;;;26.60;37.09
5812;BME280;2932;52.400;9.558;2023-05-14T11:34:50;101086.63;;;26.68;38.06
5812;BME280;2932;52.400;9.558;2023-05-14T11:37:16;101085.06;;;26.79;38.15
5812;BME280;2932;52.400;9.558;2023-05-14T11:39:48;101070.69;;;26.86;37.27
5812;BME280;2932;52.400;9.558;2023-05-14T11:42:15;101078.03;;;26.71;37.72
5812;BME280;2932;52.400;9.558;2023-05-14T11:44:43;101066.31;;;27.14;37.58
5812;BME280;2932;52.400;9.558;2023-05-14T11:47:09;101063.06;;;27.41;41.23
5812;BME280;2932;52.400;9.558;2023-05-14T11:49:35;101055.56;;;27.47;37.14
5812;BME280;2932;52.400;9.558;2023-05-14T11:52:04;101059.72;;;27.59;37.79
5812;BME280;2932;52.400;9.558;2023-05-14T11:54:30;101049.50;;;27.33;39.94
5812;BME280;2932;52.400;9.558;2023-05-14T11:56:57;101067.16;;;26.99;40.52
5812;BME280;2932;52.400;9.558;2023-05-14T11:59:26;101058.28;;;26.80;41.39
5812;BME280;2932;52.400;9.558;2023-05-14T12:01:52;101068.63;;;26.58;41.62
5812;BME280;2932;52.400;9.558;2023-05-14T12:04:21;101065.63;;;26.94;41.99
5812;BME280;2932;52.400;9.558;2023-05-14T12:06:50;101060.38;;;27.63;42.10
5812;BME280;2932;52.400;9.558;2023-05-14T12:09:20;101050.94;;;28.17;39.84
5812;BME280;2932;52.400;9.558;2023-05-14T12:11:47;101056.78;;;28.61;41.03
5812;BME280;2932;52.400;9.558;2023-05-14T12:14:18;101049.69;;;28.78;41.89
5812;BME280;2932;52.400;9.558;2023-05-14T12:16:44;101046.69;;;28.81;40.96
5812;BME280;2932;52.400;9.558;2023-05-14T12:19:11;101048.28;;;28.48;40.43
5812;BME280;2932;52.400;9.558;2023-05-14T12:21:38;101036.06;;;27.87;39.79
5812;BME280;2932;52.400;9.558;2023-05-14T12:24:08;101033.19;;;28.00;40.20
5812;BME280;2932;52.400;9.558;2023-05-14T12:26:33;101030.34;;;28.38;39.76
5812;BME280;2932;52.400;9.558;2023-05-14T12:29:00;101030.03;;;28.93;40.30
5812;BME280;2932;52.400;9.558;2023-05-14T12:31:29;101016.75;;;29.42;38.61
5812;BME280;2932;52.400;9.558;2023-05-14T12:33:54;101017.97;;;30.03;38.75
5812;BME280;2932;52.400;9.558;2023-05-14T12:36:19;101011.88;;;30.50;36.91
5812;BME280;2932;52.400;9.558;2023-05-14T12:38:45;101011.41;;;30.98;36.18
5812;BME280;2932;52.400;9.558;2023-05-14T12:41:10;101009.50;;;30.95;35.66
5812;BME280;2932;52.400;9.558;2023-05-14T12:43:35;101001.25;;;31.06;36.59
5812;BME280;2932;52.400;9.558;2023-05-14T12:46:01;101002.34;;;30.99;35.81
5812;BME280;2932;52.400;9.558;2023-05-14T12:48:26;101007.94;;;30.57;35.72
5812;BME280;2932;52.400;9.558;2023-05-14T12:50:52;100998.91;;;30.77;35.37
5812;BME280;2932;52.400;9.558;2023-05-14T12:53:17;100989.81;;;30.88;35.83
5812;BME280;2932;52.400;9.558;2023-05-14T12:55:42;100996.84;;;30.68;35.20
5812;BME280;2932;52.400;9.558;2023-05-14T12:58:07;100994.28;;;30.70;34.46
5812;BME280;2932;52.400;9.558;2023-05-14T13:00:33;100998.22;;;30.55;34.74
5812;BME280;2932;52.400;9.558;2023-05-14T13:02:58;100989.19;;;30.56;35.55
5812;BME280;2932;52.400;9.558;2023-05-14T13:05:24;100981.56;;;30.26;36.14
5812;BME280;2932;52.400;9.558;2023-05-14T13:07:51;100984.91;;;30.33;36.48